sensor_id;sensor_type;location;lat;lon;timestamp;P1;durP1;ratioP1;P2;durP2;ratioP2
68010;SDS011;54794;48.348;7.878;2023-02-28T00:01:45;0.57;;;0.40;;
68010;SDS011;54794;48.348;7.878;2023-02-28T00:04:13;0.38;;;0.28;;
68010;SDS011;54794;48.348;7.878;2023-02-28T00:06:40;0.52;;;0.30;;
68010;SDS011;54794;48.348;7.878;2023-02-28T00:09:08;1.27;;;0.38;;
68010;SDS011;54794;48.348;7.878;2023-02-28T00:11:35;0.73;;;0.43;;
68010;SDS011;54794;48.348;7.878;2023-02-28T00:14:08;0.70;;;0.45;;
68010;SDS011;54794;48.348;7.878;2023-02-28T00:16:35;0.73;;;0.35;;
68010;SDS011;54794;48.348;7.878;2023-02-28T00:19:02;0.60;;;0.40;;
68010;SDS011;54794;48.348;7.878;2023-02-28T00:21:29;0.68;;;0.40;;
68010;SDS011;54794;48.348;7.878;2023-02-28T00:23:57;0.55;;;0.40;;
68010;SDS011;54794;48.348;7.878;2023-02-28T00:26:24;1.35;;;0.45;;
68010;SDS011;54794;48.348;7.878;2023-02-28T00:28:51;1.33;;;0.50;;
68010;SDS011;54794;48.348;7.878;2023-02-28T00:31:19;1.50;;;0.52;;
68010;SDS011;54794;48.348;7.878;2023-02-28T00:33:46;1.27;;;0.60;;
68010;SDS011;54794;48.348;7.878;2023-02-28T00:36:13;1.10;;;0.65;;
68010;SDS011;54794;48.348;7.878;2023-02-28T00:38:40;0.32;;;0.30;;
68010;SDS011;54794;48.348;7.878;2023-02-28T00:41:07;0.90;;;0.50;;
68010;SDS011;54794;48.348;7.878;2023-02-28T00:43:36;1.50;;;0.60;;
68010;SDS011;54794;48.348;7.878;2023-02-28T00:46:05;0.73;;;0.47;;
68010;SDS011;54794;48.348;7.878;2023-02-28T00:50:59;0.82;;;0.40;;
68010;SDS011;54794;48.348;7.878;2023-02-28T00:53:28;0.60;;;0.40;;
68010;SDS011;54794;48.348;7.878;2023-02-28T00:55:56;1.08;;;0.40;;
68010;SDS011;54794;48.348;7.878;2023-02-28T00:58:23;0.45;;;0.40;;
68010;SDS011;54794;48.348;7.878;2023-02-28T01:03:19;1.00;;;0.60;;
68010;SDS011;54794;48.348;7.878;2023-02-28T01:05:48;0.73;;;0.40;;
68010;SDS011;54794;48.348;7.878;2023-02-28T01:08:15;0.43;;;0.30;;
68010;SDS011;54794;48.348;7.878;2023-02-28T01:10:42;0.40;;;0.40;;
68010;SDS011;54794;48.348;7.878;2023-02-28T01:13:10;1.17;;;0.45;;
68010;SDS011;54794;48.348;7.878;2023-02-28T01:15:38;0.60;;;0.45;;
68010;SDS011;54794;48.348;7.878;2023-02-28T01:18:15;1.65;;;0.45;;
68010;SDS011;54794;48.348;7.878;2023-02-28T01:20:42;0.98;;;0.40;;
68010;SDS011;54794;48.348;7.878;2023-02-28T01:23:09;0.70;;;0.30;;
68010;SDS011;54794;48.348;7.878;2023-02-28T01:25:36;0.85;;;0.40;;
68010;SDS011;54794;48.348;7.878;2023-02-28T01:30:32;0.43;;;0.38;;
68010;SDS011;54794;48.348;7.878;2023-02-28T01:32:59;0.80;;;0.35;;
68010;SDS011;54794;48.348;7.878;2023-02-28T01:35:26;0.70;;;0.40;;
68010;SDS011;54794;48.348;7.878;2023-02-28T01:37:53;1.13;;;0.50;;
68010;SDS011;54794;48.348;7.878;2023-02-28T01:40:26;2.30;;;0.50;;
68010;SDS011;54794;48.348;7.878;2023-02-28T01:42:53;0.45;;;0.28;;
68010;SDS011;54794;48.348;7.878;2023-02-28T01:47:54;0.75;;;0.47;;
68010;SDS011;54794;48.348;7.878;2023-02-28T01:50:28;0.60;;;0.40;;
68010;SDS011;54794;48.348;7.878;2023-02-28T01:53:04;0.45;;;0.40;;
68010;SDS011;54794;48.348;7.878;2023-02-28T01:55:36;0.93;;;0.47;;
68010;SDS011;54794;48.348;7.878;2023-02-28T01:58:05;0.75;;;0.50;;
68010;SDS011;54794;48.348;7.878;2023-02-28T02:00:35;0.90;;;0.60;;
68010;SDS011;54794;48.348;7.878;2023-02-28T02:03:06;1.42;;;0.55;;
68010;SDS011;54794;48.348;7.878;2023-02-28T02:05:38;0.60;;;0.38;;
68010;SDS011;54794;48.348;7.878;2023-02-28T02:08:08;2.00;;;0.50;;
68010;SDS011;54794;48.348;7.878;2023-02-28T02:10:43;1.02;;;0.55;;
68010;SDS011;54794;48.348;7.878;2023-02-28T02:16:36;0.60;;;0.30;;
68010;SDS011;54794;48.348;7.878;2023-02-28T02:20:09;0.52;;;0.40;;
68010;SDS011;54794;48.348;7.878;2023-02-28T02:25:42;0.70;;;0.47;;
68010;SDS011;54794;48.348;7.878;2023-02-28T02:38:00;0.80;;;0.55;;
68010;SDS011;54794;48.348;7.878;2023-02-28T02:40:46;1.10;;;0.55;;
68010;SDS011;54794;48.348;7.878;2023-02-28T02:43:35;0.77;;;0.50;;
68010;SDS011;54794;48.348;7.878;2023-02-28T02:49:08;0.75;;;0.50;;
68010;SDS011;54794;48.348;7.878;2023-02-28T02:51:41;0.70;;;0.50;;
68010;SDS011;54794;48.348;7.878;2023-02-28T02:54:15;0.60;;;0.40;;
68010;SDS011;54794;48.348;7.878;2023-02-28T02:59:18;0.50;;;0.35;;
68010;SDS011;54794;48.348;7.878;2023-02-28T03:01:49;1.00;;;0.47;;
68010;SDS011;54794;48.348;7.878;2023-02-28T03:04:28;1.40;;;0.40;;
68010;SDS011;54794;48.348;7.878;2023-02-28T03:07:02;0.70;;;0.52;;
68010;SDS011;54794;48.348;7.878;2023-02-28T03:10:02;1.85;;;0.43;;
68010;SDS011;54794;48.348;7.878;2023-02-28T03:12:53;0.60;;;0.40;;
68010;SDS011;54794;48.348;7.878;2023-02-28T03:15:53;1.50;;;0.55;;
68010;SDS011;54794;48.348;7.878;2023-02-28T03:18:48;1.10;;;0.50;;
68010;SDS011;54794;48.348;7.878;2023-02-28T03:24:32;0.85;;;0.52;;
68010;SDS011;54794;48.348;7.878;2023-02-28T03:30:03;0.75;;;0.45;;
68010;SDS011;54794;48.348;7.878;2023-02-28T03:32:57;0.80;;;0.60;;
68010;SDS011;54794;48.348;7.878;2023-02-28T03:35:39;1.05;;;0.50;;
68010;SDS011;54794;48.348;7.878;2023-02-28T03:41:27;0.80;;;0.40;;
68010;SDS011;54794;48.348;7.878;2023-02-28T03:44:12;0.95;;;0.45;;
68010;SDS011;54794;48.348;7.878;2023-02-28T03:46:47;1.08;;;0.65;;
68010;SDS011;54794;48.348;7.878;2023-02-28T03:49:26;1.40;;;0.63;;
68010;SDS011;54794;48.348;7.878;2023-02-28T03:52:10;1.40;;;0.60;;
68010;SDS011;54794;48.348;7.878;2023-02-28T03:54:45;0.88;;;0.55;;
68010;SDS011;54794;48.348;7.878;2023-02-28T04:00:20;0.73;;;0.40;;
68010;SDS011;54794;48.348;7.878;2023-02-28T04:02:56;0.70;;;0.40;;
68010;SDS011;54794;48.348;7.878;2023-02-28T04:05:29;0.85;;;0.60;;
68010;SDS011;54794;48.348;7.878;2023-02-28T04:09:59;0.63;;;0.43;;
68010;SDS011;54794;48.348;7.878;2023-02-28T04:16:51;2.08;;;0.70;;
68010;SDS011;54794;48.348;7.878;2023-02-28T04:19:28;1.85;;;0.75;;
68010;SDS011;54794;48.348;7.878;2023-02-28T04:21:54;1.20;;;0.63;;
68010;SDS011;54794;48.348;7.878;2023-02-28T04:24:23;1.33;;;0.50;;
68010;SDS011;54794;48.348;7.878;2023-02-28T04:26:54;0.98;;;0.50;;
68010;SDS011;54794;48.348;7.878;2023-02-28T04:29:24;1.63;;;0.60;;
68010;SDS011;54794;48.348;7.878;2023-02-28T04:32:01;1.42;;;0.57;;
68010;SDS011;54794;48.348;7.878;2023-02-28T04:34:29;0.60;;;0.40;;
68010;SDS011;54794;48.348;7.878;2023-02-28T04:36:58;1.70;;;0.82;;
68010;SDS011;54794;48.348;7.878;2023-02-28T04:39:42;0.73;;;0.50;;
68010;SDS011;54794;48.348;7.878;2023-02-28T04:42:10;0.93;;;0.60;;
68010;SDS011;54794;48.348;7.878;2023-02-28T04:44:38;0.90;;;0.60;;
68010;SDS011;54794;48.348;7.878;2023-02-28T04:47:05;0.65;;;0.50;;
68010;SDS011;54794;48.348;7.878;2023-02-28T04:49:32;1.67;;;0.80;;
68010;SDS011;54794;48.348;7.878;2023-02-28T04:51:59;0.80;;;0.60;;
68010;SDS011;54794;48.348;7.878;2023-02-28T04:54:26;1.42;;;0.60;;
68010;SDS011;54794;48.348;7.878;2023-02-28T04:56:54;0.77;;;0.60;;
68010;SDS011;54794;48.348;7.878;2023-02-28T04:59:21;0.88;;;0.60;;
68010;SDS011;54794;48.348;7.878;2023-02-28T05:01:48;0.95;;;0.60;;
68010;SDS011;54794;48.348;7.878;2023-02-28T05:04:18;1.58;;;0.70;;
68010;SDS011;54794;48.348;7.878;2023-02-28T05:06:45;1.10;;;0.73;;
68010;SDS011;54794;48.348;7.878;2023-02-28T05:09:12;1.08;;;0.80;;
68010;SDS011;54794;48.348;7.878;2023-02-28T05:11:39;1.38;;;0.98;;
68010;SDS011;54794;48.348;7.878;2023-02-28T05:16:38;1.98;;;0.80;;
68010;SDS011;54794;48.348;7.878;2023-02-28T05:19:05;0.98;;;0.68;;
68010;SDS011;54794;48.348;7.878;2023-02-28T05:21:33;1.10;;;0.68;;
68010;SDS011;54794;48.348;7.878;2023-02-28T05:24:05;0.85;;;0.60;;
68010;SDS011;54794;48.348;7.878;2023-02-28T05:26:37;0.60;;;0.50;;
68010;SDS011;54794;48.348;7.878;2023-02-28T05:29:07;1.27;;;0.63;;
68010;SDS011;54794;48.348;7.878;2023-02-28T05:31:35;1.13;;;0.70;;
68010;SDS011;54794;48.348;7.878;2023-02-28T05:34:02;1.17;;;0.93;;
68010;SDS011;54794;48.348;7.878;2023-02-28T05:36:30;1.20;;;0.70;;
68010;SDS011;54794;48.348;7.878;2023-02-28T05:38:58;0.98;;;0.68;;
68010;SDS011;54794;48.348;7.878;2023-02-28T05:41:25;2.00;;;0.95;;
68010;SDS011;54794;48.348;7.878;2023-02-28T05:43:53;0.85;;;0.65;;
68010;SDS011;54794;48.348;7.878;2023-02-28T05:46:20;1.35;;;0.70;;
68010;SDS011;54794;48.348;7.878;2023-02-28T05:48:47;0.45;;;0.30;;
68010;SDS011;54794;48.348;7.878;2023-02-28T05:51:15;1.30;;;0.80;;
68010;SDS011;54794;48.348;7.878;2023-02-28T05:53:43;1.23;;;0.77;;
68010;SDS011;54794;48.348;7.878;2023-02-28T05:56:10;1.42;;;0.80;;
68010;SDS011;54794;48.348;7.878;2023-02-28T05:58:37;1.17;;;0.75;;
68010;SDS011;54794;48.348;7.878;2023-02-28T06:04:15;1.05;;;0.70;;
68010;SDS011;54794;48.348;7.878;2023-02-28T06:06:59;1.20;;;0.70;;
68010;SDS011;54794;48.348;7.878;2023-02-28T06:09:31;0.73;;;0.55;;
68010;SDS011;54794;48.348;7.878;2023-02-28T06:15:24;1.20;;;0.60;;
68010;SDS011;54794;48.348;7.878;2023-02-28T06:18:03;1.55;;;0.60;;
68010;SDS011;54794;48.348;7.878;2023-02-28T06:20:59;0.90;;;0.70;;
68010;SDS011;54794;48.348;7.878;2023-02-28T06:24:31;0.57;;;0.50;;
68010;SDS011;54794;48.348;7.878;2023-02-28T06:27:02;0.77;;;0.60;;
68010;SDS011;54794;48.348;7.878;2023-02-28T06:29:39;1.10;;;0.70;;
68010;SDS011;54794;48.348;7.878;2023-02-28T06:32:19;1.50;;;0.80;;
68010;SDS011;54794;48.348;7.878;2023-02-28T06:34:51;1.55;;;0.70;;
68010;SDS011;54794;48.348;7.878;2023-02-28T06:37:42;1.23;;;0.60;;
68010;SDS011;54794;48.348;7.878;2023-02-28T06:40:16;1.40;;;0.75;;
68010;SDS011;54794;48.348;7.878;2023-02-28T06:42:45;1.02;;;0.68;;
68010;SDS011;54794;48.348;7.878;2023-02-28T06:45:18;1.75;;;0.95;;
68010;SDS011;54794;48.348;7.878;2023-02-28T06:48:01;1.40;;;0.73;;
68010;SDS011;54794;48.348;7.878;2023-02-28T06:50:31;1.15;;;0.68;;
68010;SDS011;54794;48.348;7.878;2023-02-28T06:53:08;1.45;;;0.88;;
68010;SDS011;54794;48.348;7.878;2023-02-28T06:55:43;1.25;;;1.02;;
68010;SDS011;54794;48.348;7.878;2023-02-28T06:58:21;1.02;;;0.75;;
68010;SDS011;54794;48.348;7.878;2023-02-28T07:01:01;2.15;;;0.68;;
68010;SDS011;54794;48.348;7.878;2023-02-28T07:04:07;1.27;;;0.80;;
68010;SDS011;54794;48.348;7.878;2023-02-28T07:07:10;1.65;;;0.88;;
68010;SDS011;54794;48.348;7.878;2023-02-28T07:09:42;1.42;;;0.80;;
68010;SDS011;54794;48.348;7.878;2023-02-28T07:12:32;1.00;;;0.70;;
68010;SDS011;54794;48.348;7.878;2023-02-28T07:15:40;1.92;;;1.05;;
68010;SDS011;54794;48.348;7.878;2023-02-28T07:18:40;1.38;;;0.90;;
68010;SDS011;54794;48.348;7.878;2023-02-28T07:21:08;1.17;;;0.70;;
68010;SDS011;54794;48.348;7.878;2023-02-28T07:23:46;3.08;;;0.70;;
68010;SDS011;54794;48.348;7.878;2023-02-28T07:26:19;0.90;;;0.77;;
68010;SDS011;54794;48.348;7.878;2023-02-28T07:28:53;1.35;;;0.95;;
68010;SDS011;54794;48.348;7.878;2023-02-28T07:31:23;1.15;;;0.73;;
68010;SDS011;54794;48.348;7.878;2023-02-28T07:33:50;1.77;;;1.15;;
68010;SDS011;54794;48.348;7.878;2023-02-28T07:36:23;2.10;;;1.05;;
68010;SDS011;54794;48.348;7.878;2023-02-28T07:39:03;1.45;;;1.08;;
68010;SDS011;54794;48.348;7.878;2023-02-28T07:41:49;3.00;;;1.02;;
68010;SDS011;54794;48.348;7.878;2023-02-28T07:44:16;2.70;;;0.98;;
68010;SDS011;54794;48.348;7.878;2023-02-28T07:46:43;2.15;;;1.10;;
68010;SDS011;54794;48.348;7.878;2023-02-28T07:49:10;2.67;;;1.33;;
68010;SDS011;54794;48.348;7.878;2023-02-28T07:51:37;1.73;;;0.95;;
68010;SDS011;54794;48.348;7.878;2023-02-28T07:54:04;1.63;;;0.85;;
68010;SDS011;54794;48.348;7.878;2023-02-28T07:56:31;1.75;;;1.02;;
68010;SDS011;54794;48.348;7.878;2023-02-28T07:58:58;2.00;;;1.02;;
68010;SDS011;54794;48.348;7.878;2023-02-28T08:01:28;1.83;;;0.90;;
68010;SDS011;54794;48.348;7.878;2023-02-28T08:03:58;1.13;;;0.88;;
68010;SDS011;54794;48.348;7.878;2023-02-28T08:06:25;2.42;;;1.23;;
68010;SDS011;54794;48.348;7.878;2023-02-28T08:08:52;1.73;;;0.90;;
68010;SDS011;54794;48.348;7.878;2023-02-28T08:13:47;2.17;;;1.00;;
68010;SDS011;54794;48.348;7.878;2023-02-28T08:16:14;1.77;;;0.88;;
68010;SDS011;54794;48.348;7.878;2023-02-28T08:18:44;1.90;;;1.15;;
68010;SDS011;54794;48.348;7.878;2023-02-28T08:21:11;1.40;;;1.00;;
68010;SDS011;54794;48.348;7.878;2023-02-28T08:23:38;2.03;;;1.25;;
68010;SDS011;54794;48.348;7.878;2023-02-28T08:26:05;1.75;;;1.10;;
68010;SDS011;54794;48.348;7.878;2023-02-28T08:28:33;1.45;;;0.98;;
68010;SDS011;54794;48.348;7.878;2023-02-28T08:31:10;1.65;;;1.05;;
68010;SDS011;54794;48.348;7.878;2023-02-28T08:33:40;1.67;;;1.17;;
68010;SDS011;54794;48.348;7.878;2023-02-28T08:36:09;1.35;;;0.85;;
68010;SDS011;54794;48.348;7.878;2023-02-28T08:38:37;1.80;;;1.30;;
68010;SDS011;54794;48.348;7.878;2023-02-28T08:41:09;1.38;;;0.90;;
68010;SDS011;54794;48.348;7.878;2023-02-28T08:43:38;2.00;;;1.20;;
68010;SDS011;54794;48.348;7.878;2023-02-28T08:46:06;1.45;;;0.85;;
68010;SDS011;54794;48.348;7.878;2023-02-28T08:48:34;1.17;;;0.98;;
68010;SDS011;54794;48.348;7.878;2023-02-28T08:51:10;2.25;;;1.30;;
68010;SDS011;54794;48.348;7.878;2023-02-28T08:53:42;2.33;;;1.40;;
68010;SDS011;54794;48.348;7.878;2023-02-28T08:56:10;1.75;;;1.10;;
68010;SDS011;54794;48.348;7.878;2023-02-28T08:58:43;2.80;;;1.30;;
68010;SDS011;54794;48.348;7.878;2023-02-28T09:01:15;2.63;;;1.38;;
68010;SDS011;54794;48.348;7.878;2023-02-28T09:03:46;1.30;;;0.95;;
68010;SDS011;54794;48.348;7.878;2023-02-28T09:06:18;2.17;;;1.20;;
68010;SDS011;54794;48.348;7.878;2023-02-28T09:08:51;1.60;;;1.00;;
68010;SDS011;54794;48.348;7.878;2023-02-28T09:13:48;1.45;;;1.08;;
68010;SDS011;54794;48.348;7.878;2023-02-28T09:16:15;1.75;;;1.20;;
68010;SDS011;54794;48.348;7.878;2023-02-28T09:18:44;1.60;;;1.05;;
68010;SDS011;54794;48.348;7.878;2023-02-28T09:21:14;1.88;;;1.08;;
68010;SDS011;54794;48.348;7.878;2023-02-28T09:23:48;3.03;;;1.40;;
68010;SDS011;54794;48.348;7.878;2023-02-28T09:26:21;2.20;;;1.20;;
68010;SDS011;54794;48.348;7.878;2023-02-28T09:29:07;2.03;;;1.33;;
68010;SDS011;54794;48.348;7.878;2023-02-28T09:31:34;1.65;;;1.20;;
68010;SDS011;54794;48.348;7.878;2023-02-28T09:34:01;2.75;;;1.40;;
68010;SDS011;54794;48.348;7.878;2023-02-28T09:36:30;1.95;;;1.20;;
68010;SDS011;54794;48.348;7.878;2023-02-28T09:39:10;2.60;;;1.42;;
68010;SDS011;54794;48.348;7.878;2023-02-28T09:41:40;2.38;;;1.30;;
68010;SDS011;54794;48.348;7.878;2023-02-28T09:47:13;1.73;;;1.17;;
68010;SDS011;54794;48.348;7.878;2023-02-28T09:52:52;2.53;;;1.20;;
68010;SDS011;54794;48.348;7.878;2023-02-28T09:55:23;1.88;;;1.17;;
68010;SDS011;54794;48.348;7.878;2023-02-28T09:58:08;2.40;;;1.65;;
68010;SDS011;54794;48.348;7.878;2023-02-28T10:01:00;1.52;;;1.30;;
68010;SDS011;54794;48.348;7.878;2023-02-28T10:04:16;3.25;;;1.50;;
68010;SDS011;54794;48.348;7.878;2023-02-28T10:07:25;2.00;;;1.40;;
68010;SDS011;54794;48.348;7.878;2023-02-28T10:10:30;2.25;;;1.27;;
68010;SDS011;54794;48.348;7.878;2023-02-28T10:13:07;1.60;;;1.25;;
68010;SDS011;54794;48.348;7.878;2023-02-28T10:21:49;2.60;;;1.38;;
68010;SDS011;54794;48.348;7.878;2023-02-28T10:24:45;2.83;;;1.50;;
68010;SDS011;54794;48.348;7.878;2023-02-28T10:27:29;2.42;;;1.42;;
68010;SDS011;54794;48.348;7.878;2023-02-28T10:29:58;3.50;;;1.30;;
68010;SDS011;54794;48.348;7.878;2023-02-28T10:32:34;1.65;;;1.25;;
68010;SDS011;54794;48.348;7.878;2023-02-28T10:35:18;1.83;;;1.27;;
68010;SDS011;54794;48.348;7.878;2023-02-28T10:37:50;2.08;;;1.45;;
68010;SDS011;54794;48.348;7.878;2023-02-28T10:45:29;2.80;;;1.35;;
68010;SDS011;54794;48.348;7.878;2023-02-28T10:48:02;1.98;;;1.33;;
68010;SDS011;54794;48.348;7.878;2023-02-28T10:50:52;2.42;;;1.50;;
68010;SDS011;54794;48.348;7.878;2023-02-28T10:56:14;2.60;;;1.58;;
68010;SDS011;54794;48.348;7.878;2023-02-28T10:58:51;2.78;;;1.48;;
68010;SDS011;54794;48.348;7.878;2023-02-28T11:07:19;2.03;;;1.40;;
68010;SDS011;54794;48.348;7.878;2023-02-28T11:09:51;2.15;;;1.33;;
68010;SDS011;54794;48.348;7.878;2023-02-28T11:12:26;2.28;;;1.45;;
68010;SDS011;54794;48.348;7.878;2023-02-28T11:15:23;2.35;;;1.55;;
68010;SDS011;54794;48.348;7.878;2023-02-28T11:17:56;1.73;;;1.27;;
68010;SDS011;54794;48.348;7.878;2023-02-28T11:20:33;3.10;;;1.65;;
68010;SDS011;54794;48.348;7.878;2023-02-28T11:23:20;3.35;;;1.73;;
68010;SDS011;54794;48.348;7.878;2023-02-28T11:25:59;4.25;;;1.65;;
68010;SDS011;54794;48.348;7.878;2023-02-28T11:28:34;2.55;;;1.65;;
68010;SDS011;54794;48.348;7.878;2023-02-28T11:36:29;2.80;;;1.58;;
68010;SDS011;54794;48.348;7.878;2023-02-28T11:39:09;3.22;;;2.08;;
68010;SDS011;54794;48.348;7.878;2023-02-28T11:45:44;3.65;;;1.90;;
68010;SDS011;54794;48.348;7.878;2023-02-28T11:50:55;2.20;;;1.45;;
68010;SDS011;54794;48.348;7.878;2023-02-28T11:56:37;3.75;;;1.75;;
68010;SDS011;54794;48.348;7.878;2023-02-28T12:02:25;5.93;;;2.00;;
68010;SDS011;54794;48.348;7.878;2023-02-28T12:11:23;3.38;;;2.00;;
68010;SDS011;54794;48.348;7.878;2023-02-28T12:25:42;2.53;;;1.50;;
68010;SDS011;54794;48.348;7.878;2023-02-28T12:28:38;3.67;;;2.00;;
68010;SDS011;54794;48.348;7.878;2023-02-28T12:34:06;2.65;;;1.48;;
68010;SDS011;54794;48.348;7.878;2023-02-28T12:36:41;2.70;;;1.80;;
68010;SDS011;54794;48.348;7.878;2023-02-28T12:39:16;3.70;;;2.53;;
68010;SDS011;54794;48.348;7.878;2023-02-28T12:41:56;3.55;;;2.35;;
68010;SDS011;54794;48.348;7.878;2023-02-28T12:47:09;2.92;;;1.88;;
68010;SDS011;54794;48.348;7.878;2023-02-28T12:53:09;4.00;;;1.98;;
68010;SDS011;54794;48.348;7.878;2023-02-28T12:56:33;2.20;;;1.65;;
68010;SDS011;54794;48.348;7.878;2023-02-28T12:59:36;3.38;;;2.10;;
68010;SDS011;54794;48.348;7.878;2023-02-28T13:09:08;3.03;;;1.83;;
68010;SDS011;54794;48.348;7.878;2023-02-28T13:11:46;3.35;;;1.83;;
68010;SDS011;54794;48.348;7.878;2023-02-28T13:22:41;5.38;;;2.08;;
68010;SDS011;54794;48.348;7.878;2023-02-28T13:26:04;3.13;;;1.88;;
68010;SDS011;54794;48.348;7.878;2023-02-28T13:34:42;3.80;;;2.47;;
68010;SDS011;54794;48.348;7.878;2023-02-28T13:39:56;4.47;;;2.33;;
68010;SDS011;54794;48.348;7.878;2023-02-28T13:42:35;4.45;;;2.15;;
68010;SDS011;54794;48.348;7.878;2023-02-28T13:45:27;3.50;;;2.22;;
68010;SDS011;54794;48.348;7.878;2023-02-28T13:57:26;3.92;;;2.15;;
68010;SDS011;54794;48.348;7.878;2023-02-28T14:07:20;3.20;;;2.20;;
68010;SDS011;54794;48.348;7.878;2023-02-28T14:13:40;3.65;;;2.15;;
68010;SDS011;54794;48.348;7.878;2023-02-28T14:16:20;3.88;;;1.95;;
68010;SDS011;54794;48.348;7.878;2023-02-28T14:19:01;2.58;;;2.00;;
68010;SDS011;54794;48.348;7.878;2023-02-28T14:36:04;3.00;;;1.85;;
68010;SDS011;54794;48.348;7.878;2023-02-28T14:38:52;2.28;;;1.60;;
68010;SDS011;54794;48.348;7.878;2023-02-28T14:41:42;2.85;;;2.15;;
68010;SDS011;54794;48.348;7.878;2023-02-28T14:44:30;2.90;;;2.00;;
68010;SDS011;54794;48.348;7.878;2023-02-28T14:50:52;2.92;;;2.15;;
68010;SDS011;54794;48.348;7.878;2023-02-28T14:53:57;3.33;;;2.50;;
68010;SDS011;54794;48.348;7.878;2023-02-28T14:57:04;2.85;;;2.10;;
68010;SDS011;54794;48.348;7.878;2023-02-28T15:03:39;3.80;;;2.30;;
68010;SDS011;54794;48.348;7.878;2023-02-28T15:06:41;3.30;;;1.77;;
68010;SDS011;54794;48.348;7.878;2023-02-28T15:09:43;3.53;;;2.30;;
68010;SDS011;54794;48.348;7.878;2023-02-28T15:13:05;3.85;;;2.63;;
68010;SDS011;54794;48.348;7.878;2023-02-28T15:23:02;5.68;;;3.22;;
68010;SDS011;54794;48.348;7.878;2023-02-28T15:34:22;3.70;;;2.63;;
68010;SDS011;54794;48.348;7.878;2023-02-28T15:40:14;4.00;;;2.47;;
68010;SDS011;54794;48.348;7.878;2023-02-28T15:43:17;4.25;;;2.58;;
68010;SDS011;54794;48.348;7.878;2023-02-28T15:51:24;3.97;;;2.75;;
68010;SDS011;54794;48.348;7.878;2023-02-28T15:54:12;4.32;;;3.15;;
68010;SDS011;54794;48.348;7.878;2023-02-28T15:56:56;4.15;;;2.58;;
68010;SDS011;54794;48.348;7.878;2023-02-28T16:00:29;5.05;;;3.33;;
68010;SDS011;54794;48.348;7.878;2023-02-28T16:03:32;3.80;;;2.67;;
68010;SDS011;54794;48.348;7.878;2023-02-28T16:09:27;4.20;;;2.45;;
68010;SDS011;54794;48.348;7.878;2023-02-28T16:12:29;3.75;;;2.55;;
68010;SDS011;54794;48.348;7.878;2023-02-28T16:15:27;5.45;;;3.08;;
68010;SDS011;54794;48.348;7.878;2023-02-28T16:18:40;4.88;;;3.10;;
68010;SDS011;54794;48.348;7.878;2023-02-28T16:21:12;4.40;;;3.03;;
68010;SDS011;54794;48.348;7.878;2023-02-28T16:23:45;3.40;;;2.42;;
68010;SDS011;54794;48.348;7.878;2023-02-28T16:26:29;4.00;;;2.58;;
68010;SDS011;54794;48.348;7.878;2023-02-28T16:29:04;3.33;;;2.45;;
68010;SDS011;54794;48.348;7.878;2023-02-28T16:31:46;3.85;;;2.80;;
68010;SDS011;54794;48.348;7.878;2023-02-28T16:34:23;5.63;;;2.83;;
68010;SDS011;54794;48.348;7.878;2023-02-28T16:39:45;3.50;;;2.22;;
68010;SDS011;54794;48.348;7.878;2023-02-28T16:42:57;3.05;;;2.35;;
68010;SDS011;54794;48.348;7.878;2023-02-28T16:49:10;3.15;;;1.98;;
68010;SDS011;54794;48.348;7.878;2023-02-28T16:52:00;2.78;;;1.95;;
68010;SDS011;54794;48.348;7.878;2023-02-28T16:54:35;3.72;;;2.22;;
68010;SDS011;54794;48.348;7.878;2023-02-28T16:57:17;3.05;;;2.00;;
68010;SDS011;54794;48.348;7.878;2023-02-28T16:59:57;4.10;;;2.15;;
68010;SDS011;54794;48.348;7.878;2023-02-28T17:02:54;2.45;;;2.00;;
68010;SDS011;54794;48.348;7.878;2023-02-28T17:06:06;3.60;;;2.00;;
68010;SDS011;54794;48.348;7.878;2023-02-28T17:12:11;2.95;;;1.92;;
68010;SDS011;54794;48.348;7.878;2023-02-28T17:14:44;3.08;;;1.98;;
68010;SDS011;54794;48.348;7.878;2023-02-28T17:17:17;2.80;;;2.05;;
68010;SDS011;54794;48.348;7.878;2023-02-28T17:20:01;3.55;;;2.40;;
68010;SDS011;54794;48.348;7.878;2023-02-28T17:22:36;3.53;;;2.05;;
68010;SDS011;54794;48.348;7.878;2023-02-28T17:25:10;4.15;;;2.38;;
68010;SDS011;54794;48.348;7.878;2023-02-28T17:27:57;4.55;;;2.65;;
68010;SDS011;54794;48.348;7.878;2023-02-28T17:30:37;3.67;;;2.20;;
68010;SDS011;54794;48.348;7.878;2023-02-28T17:33:31;4.13;;;2.38;;
68010;SDS011;54794;48.348;7.878;2023-02-28T17:36:14;5.68;;;2.85;;
68010;SDS011;54794;48.348;7.878;2023-02-28T17:41:59;3.50;;;2.33;;
68010;SDS011;54794;48.348;7.878;2023-02-28T17:44:32;5.40;;;2.97;;
68010;SDS011;54794;48.348;7.878;2023-02-28T17:47:01;5.90;;;3.40;;
68010;SDS011;54794;48.348;7.878;2023-02-28T17:49:31;5.50;;;3.50;;
68010;SDS011;54794;48.348;7.878;2023-02-28T17:51:59;8.88;;;3.42;;
68010;SDS011;54794;48.348;7.878;2023-02-28T17:54:26;5.95;;;3.67;;
68010;SDS011;54794;48.348;7.878;2023-02-28T17:56:53;5.15;;;3.38;;
68010;SDS011;54794;48.348;7.878;2023-02-28T17:59:20;5.10;;;3.20;;
68010;SDS011;54794;48.348;7.878;2023-02-28T18:01:47;5.68;;;3.22;;
68010;SDS011;54794;48.348;7.878;2023-02-28T18:04:14;7.20;;;3.20;;
68010;SDS011;54794;48.348;7.878;2023-02-28T18:06:44;4.85;;;3.13;;
68010;SDS011;54794;48.348;7.878;2023-02-28T18:09:20;4.72;;;2.78;;
68010;SDS011;54794;48.348;7.878;2023-02-28T18:11:49;4.70;;;3.10;;
68010;SDS011;54794;48.348;7.878;2023-02-28T18:14:18;5.18;;;2.55;;
68010;SDS011;54794;48.348;7.878;2023-02-28T18:16:49;3.95;;;2.72;;
68010;SDS011;54794;48.348;7.878;2023-02-28T18:19:19;4.07;;;2.65;;
68010;SDS011;54794;48.348;7.878;2023-02-28T18:21:47;6.30;;;3.22;;
68010;SDS011;54794;48.348;7.878;2023-02-28T18:24:18;4.70;;;2.85;;
68010;SDS011;54794;48.348;7.878;2023-02-28T18:26:47;4.25;;;2.35;;
68010;SDS011;54794;48.348;7.878;2023-02-28T18:29:18;4.63;;;3.10;;
68010;SDS011;54794;48.348;7.878;2023-02-28T18:31:51;4.22;;;2.80;;
68010;SDS011;54794;48.348;7.878;2023-02-28T18:34:21;4.82;;;3.22;;
68010;SDS011;54794;48.348;7.878;2023-02-28T18:36:50;5.78;;;3.97;;
68010;SDS011;54794;48.348;7.878;2023-02-28T18:39:18;5.60;;;4.00;;
68010;SDS011;54794;48.348;7.878;2023-02-28T18:41:46;4.72;;;3.25;;
68010;SDS011;54794;48.348;7.878;2023-02-28T18:44:13;9.98;;;4.85;;
68010;SDS011;54794;48.348;7.878;2023-02-28T18:46:46;9.30;;;5.65;;
68010;SDS011;54794;48.348;7.878;2023-02-28T18:49:14;6.03;;;4.22;;
68010;SDS011;54794;48.348;7.878;2023-02-28T18:54:11;7.18;;;3.92;;
68010;SDS011;54794;48.348;7.878;2023-02-28T18:56:40;6.28;;;3.92;;
68010;SDS011;54794;48.348;7.878;2023-02-28T18:59:08;6.68;;;3.60;;
68010;SDS011;54794;48.348;7.878;2023-02-28T19:01:36;6.43;;;3.70;;
68010;SDS011;54794;48.348;7.878;2023-02-28T19:04:04;6.30;;;3.60;;
68010;SDS011;54794;48.348;7.878;2023-02-28T19:06:31;5.57;;;3.50;;
68010;SDS011;54794;48.348;7.878;2023-02-28T19:09:00;5.70;;;3.47;;
68010;SDS011;54794;48.348;7.878;2023-02-28T19:11:29;5.63;;;3.45;;
68010;SDS011;54794;48.348;7.878;2023-02-28T19:14:00;8.23;;;3.92;;
68010;SDS011;54794;48.348;7.878;2023-02-28T19:16:28;8.93;;;3.75;;
68010;SDS011;54794;48.348;7.878;2023-02-28T19:18:56;5.85;;;3.58;;
68010;SDS011;54794;48.348;7.878;2023-02-28T19:21:23;5.22;;;3.25;;
68010;SDS011;54794;48.348;7.878;2023-02-28T19:23:51;5.35;;;3.15;;
68010;SDS011;54794;48.348;7.878;2023-02-28T19:28:48;3.60;;;2.05;;
68010;SDS011;54794;48.348;7.878;2023-02-28T19:33:47;2.97;;;1.88;;
68010;SDS011;54794;48.348;7.878;2023-02-28T19:36:14;4.78;;;2.55;;
68010;SDS011;54794;48.348;7.878;2023-02-28T19:41:10;3.97;;;2.13;;
68010;SDS011;54794;48.348;7.878;2023-02-28T19:43:40;3.78;;;2.33;;
68010;SDS011;54794;48.348;7.878;2023-02-28T19:48:39;2.80;;;1.92;;
68010;SDS011;54794;48.348;7.878;2023-02-28T19:51:09;5.03;;;2.45;;
68010;SDS011;54794;48.348;7.878;2023-02-28T19:53:39;3.72;;;2.22;;
68010;SDS011;54794;48.348;7.878;2023-02-28T19:56:07;3.72;;;2.35;;